sensor_id;sensor_type;location;lat;lon;timestamp;temperature;humidity
1956;DHT22;978;48.314;11.562;2023-04-24T00:01:59;20.50;75.50
1956;DHT22;978;48.314;11.562;2023-04-24T00:04:26;20.50;75.50
1956;DHT22;978;48.314;11.562;2023-04-24T00:06:53;20.50;75.50
1956;DHT22;978;48.314;11.562;2023-04-24T00:09:22;20.50;75.50
1956;DHT22;978;48.314;11.562;2023-04-24T00:11:50;20.50;75.50
1956;DHT22;978;48.314;11.562;2023-04-24T00:14:17;20.40;75.50
1956;DHT22;978;48.314;11.562;2023-04-24T00:16:44;20.50;75.50
1956;DHT22;978;48.314;11.562;2023-04-24T00:19:12;20.50;75.50
1956;DHT22;978;48.314;11.562;2023-04-24T00:21:40;20.50;75.50
1956;DHT22;978;48.314;11.562;2023-04-24T00:24:07;20.50;75.50
1956;DHT22;978;48.314;11.562;2023-04-24T00:26:35;20.50;75.50
1956;DHT22;978;48.314;11.562;2023-04-24T00:29:03;20.50;75.50
1956;DHT22;978;48.314;11.562;2023-04-24T00:31:31;20.50;75.50
1956;DHT22;978;48.314;11.562;2023-04-24T00:34:00;20.50;75.50
1956;DHT22;978;48.314;11.562;2023-04-24T00:36:27;20.50;75.50
1956;DHT22;978;48.314;11.562;2023-04-24T00:38:55;20.50;75.50
1956;DHT22;978;48.314;11.562;2023-04-24T00:41:24;20.50;75.50
1956;DHT22;978;48.314;11.562;2023-04-24T00:43:52;20.50;75.50
1956;DHT22;978;48.314;11.562;2023-04-24T00:46:22;20.50;75.50
1956;DHT22;978;48.314;11.562;2023-04-24T00:48:49;20.50;75.50
1956;DHT22;978;48.314;11.562;2023-04-24T00:51:19;20.50;75.50
1956;DHT22;978;48.314;11.562;2023-04-24T00:53:47;20.50;75.50
1956;DHT22;978;48.314;11.562;2023-04-24T00:56:15;20.50;75.40
1956;DHT22;978;48.314;11.562;2023-04-24T00:58:42;20.50;75.50
1956;DHT22;978;48.314;11.562;2023-04-24T01:01:10;20.50;75.40
1956;DHT22;978;48.314;11.562;2023-04-24T01:03:39;20.50;75.50
1956;DHT22;978;48.314;11.562;2023-04-24T01:06:06;20.50;75.50
1956;DHT22;978;48.314;11.562;2023-04-24T01:08:34;20.50;75.50
1956;DHT22;978;48.314;11.562;2023-04-24T01:11:03;20.50;75.50
1956;DHT22;978;48.314;11.562;2023-04-24T01:13:31;20.50;75.50
1956;DHT22;978;48.314;11.562;2023-04-24T01:16:00;20.50;75.50
1956;DHT22;978;48.314;11.562;2023-04-24T01:18:27;20.50;75.40
1956;DHT22;978;48.314;11.562;2023-04-24T01:20:59;20.50;75.40
1956;DHT22;978;48.314;11.562;2023-04-24T01:23:27;20.50;75.40
1956;DHT22;978;48.314;11.562;2023-04-24T01:25:56;20.50;75.40
1956;DHT22;978;48.314;11.562;2023-04-24T01:28:23;20.50;75.40
1956;DHT22;978;48.314;11.562;2023-04-24T01:30:51;20.50;75.40
1956;DHT22;978;48.314;11.562;2023-04-24T01:33:21;20.50;75.40
1956;DHT22;978;48.314;11.562;2023-04-24T01:35:48;20.50;75.40
1956;DHT22;978;48.314;11.562;2023-04-24T01:38:16;20.50;75.50
1956;DHT22;978;48.314;11.562;2023-04-24T01:40:45;20.50;75.50
1956;DHT22;978;48.314;11.562;2023-04-24T01:43:13;20.50;75.40
1956;DHT22;978;48.314;11.562;2023-04-24T01:45:39;20.50;75.40
1956;DHT22;978;48.314;11.562;2023-04-24T01:48:06;20.50;75.30
1956;DHT22;978;48.314;11.562;2023-04-24T01:50:33;20.50;75.30
1956;DHT22;978;48.314;11.562;2023-04-24T01:53:02;20.50;75.40
1956;DHT22;978;48.314;11.562;2023-04-24T01:55:29;20.50;75.30
1956;DHT22;978;48.314;11.562;2023-04-24T01:57:59;20.50;75.30
1956;DHT22;978;48.314;11.562;2023-04-24T02:00:28;20.50;75.40
1956;DHT22;978;48.314;11.562;2023-04-24T02:02:55;20.50;75.40
1956;DHT22;978;48.314;11.562;2023-04-24T02:05:23;20.50;75.40
1956;DHT22;978;48.314;11.562;2023-04-24T02:07:51;20.50;75.40
1956;DHT22;978;48.314;11.562;2023-04-24T02:10:19;20.50;75.40
1956;DHT22;978;48.314;11.562;2023-04-24T02:12:45;20.50;75.30
1956;DHT22;978;48.314;11.562;2023-04-24T02:15:15;20.50;75.30
1956;DHT22;978;48.314;11.562;2023-04-24T02:17:43;20.50;75.30
1956;DHT22;978;48.314;11.562;2023-04-24T02:20:10;20.50;75.30
1956;DHT22;978;48.314;11.562;2023-04-24T02:22:37;20.50;75.20
1956;DHT22;978;48.314;11.562;2023-04-24T02:25:06;20.50;75.20
1956;DHT22;978;48.314;11.562;2023-04-24T02:27:34;20.50;75.30
1956;DHT22;978;48.314;11.562;2023-04-24T02:30:02;20.50;75.30
1956;DHT22;978;48.314;11.562;2023-04-24T02:32:30;20.50;75.30
1956;DHT22;978;48.314;11.562;2023-04-24T02:34:58;20.50;75.90
1956;DHT22;978;48.314;11.562;2023-04-24T02:37:25;20.50;75.20
1956;DHT22;978;48.314;11.562;2023-04-24T02:39:53;20.50;75.20
1956;DHT22;978;48.314;11.562;2023-04-24T02:42:20;20.50;75.10
1956;DHT22;978;48.314;11.562;2023-04-24T02:44:48;20.50;75.20
1956;DHT22;978;48.314;11.562;2023-04-24T02:47:17;20.50;75.20
1956;DHT22;978;48.314;11.562;2023-04-24T02:49:47;20.50;75.20
1956;DHT22;978;48.314;11.562;2023-04-24T02:52:13;20.50;75.10
1956;DHT22;978;48.314;11.562;2023-04-24T02:54:42;20.50;75.20
1956;DHT22;978;48.314;11.562;2023-04-24T02:57:09;20.50;75.20
1956;DHT22;978;48.314;11.562;2023-04-24T02:59:37;20.50;75.20
1956;DHT22;978;48.314;11.562;2023-04-24T03:02:03;20.50;75.20
1956;DHT22;978;48.314;11.562;2023-04-24T03:04:31;20.50;75.20
1956;DHT22;978;48.314;11.562;2023-04-24T03:06:59;20.50;75.10
1956;DHT22;978;48.314;11.562;2023-04-24T03:09:26;20.50;75.10
1956;DHT22;978;48.314;11.562;2023-04-24T03:11:54;20.50;75.10
1956;DHT22;978;48.314;11.562;2023-04-24T03:14:23;20.50;75.10
1956;DHT22;978;48.314;11.562;2023-04-24T03:16:50;20.50;75.10
1956;DHT22;978;48.314;11.562;2023-04-24T03:19:16;20.50;75.10
1956;DHT22;978;48.314;11.562;2023-04-24T03:21:44;20.50;75.10
1956;DHT22;978;48.314;11.562;2023-04-24T03:24:19;20.50;75.10
1956;DHT22;978;48.314;11.562;2023-04-24T03:26:46;20.50;75.70
1956;DHT22;978;48.314;11.562;2023-04-24T03:29:14;20.50;75.10
1956;DHT22;978;48.314;11.562;2023-04-24T03:31:41;20.50;75.10
1956;DHT22;978;48.314;11.562;2023-04-24T03:34:09;20.50;75.60
1956;DHT22;978;48.314;11.562;2023-04-24T03:36:35;20.50;75.00
1956;DHT22;978;48.314;11.562;2023-04-24T03:39:02;20.50;75.00
1956;DHT22;978;48.314;11.562;2023-04-24T03:41:31;20.50;75.00
1956;DHT22;978;48.314;11.562;2023-04-24T03:43:59;20.50;75.00
1956;DHT22;978;48.314;11.562;2023-04-24T03:46:26;20.50;75.10
1956;DHT22;978;48.314;11.562;2023-04-24T03:48:56;20.50;75.60
1956;DHT22;978;48.314;11.562;2023-04-24T03:51:25;20.50;75.10
1956;DHT22;978;48.314;11.562;2023-04-24T03:53:55;20.50;75.10
1956;DHT22;978;48.314;11.562;2023-04-24T03:56:22;20.50;75.10
1956;DHT22;978;48.314;11.562;2023-04-24T03:58:52;20.50;75.10
1956;DHT22;978;48.314;11.562;2023-04-24T04:01:19;20.50;75.00
1956;DHT22;978;48.314;11.562;2023-04-24T04:03:49;20.50;75.00
1956;DHT22;978;48.314;11.562;2023-04-24T04:06:18;20.50;74.90
1956;DHT22;978;48.314;11.562;2023-04-24T04:08:48;20.50;75.60
1956;DHT22;978;48.314;11.562;2023-04-24T04:11:16;20.50;74.90
1956;DHT22;978;48.314;11.562;2023-04-24T04:13:42;20.50;74.90
1956;DHT22;978;48.314;11.562;2023-04-24T04:16:12;20.50;74.90
1956;DHT22;978;48.314;11.562;2023-04-24T04:18:39;20.50;74.90
1956;DHT22;978;48.314;11.562;2023-04-24T04:21:06;20.50;74.90
1956;DHT22;978;48.314;11.562;2023-04-24T04:23:33;20.50;75.00
1956;DHT22;978;48.314;11.562;2023-04-24T04:26:01;20.50;74.90
1956;DHT22;978;48.314;11.562;2023-04-24T04:28:28;20.50;74.90
1956;DHT22;978;48.314;11.562;2023-04-24T04:30:56;20.50;74.90
1956;DHT22;978;48.314;11.562;2023-04-24T04:33:24;20.50;74.90
1956;DHT22;978;48.314;11.562;2023-04-24T04:35:51;20.50;74.90
1956;DHT22;978;48.314;11.562;2023-04-24T04:38:18;20.50;74.90
1956;DHT22;978;48.314;11.562;2023-04-24T04:40:46;20.50;74.90
1956;DHT22;978;48.314;11.562;2023-04-24T04:43:14;20.50;74.80
1956;DHT22;978;48.314;11.562;2023-04-24T04:45:41;20.50;74.80
1956;DHT22;978;48.314;11.562;2023-04-24T04:48:09;20.50;74.80
1956;DHT22;978;48.314;11.562;2023-04-24T04:50:41;20.50;74.80
1956;DHT22;978;48.314;11.562;2023-04-24T04:53:09;20.50;74.80
1956;DHT22;978;48.314;11.562;2023-04-24T04:55:36;20.50;74.70
1956;DHT22;978;48.314;11.562;2023-04-24T04:58:03;20.50;74.70
1956;DHT22;978;48.314;11.562;2023-04-24T05:00:31;20.40;74.70
1956;DHT22;978;48.314;11.562;2023-04-24T05:03:01;20.50;74.60
1956;DHT22;978;48.314;11.562;2023-04-24T05:05:30;20.50;74.60
1956;DHT22;978;48.314;11.562;2023-04-24T05:08:01;20.50;74.60
1956;DHT22;978;48.314;11.562;2023-04-24T05:10:27;20.50;74.60
1956;DHT22;978;48.314;11.562;2023-04-24T05:12:55;20.50;74.60
1956;DHT22;978;48.314;11.562;2023-04-24T05:15:22;20.50;74.50
1956;DHT22;978;48.314;11.562;2023-04-24T05:17:48;20.50;74.50
1956;DHT22;978;48.314;11.562;2023-04-24T05:20:19;20.50;74.50
1956;DHT22;978;48.314;11.562;2023-04-24T05:22:49;20.50;74.50
1956;DHT22;978;48.314;11.562;2023-04-24T05:25:19;20.50;74.50
1956;DHT22;978;48.314;11.562;2023-04-24T05:27:49;20.50;74.50
1956;DHT22;978;48.314;11.562;2023-04-24T05:30:16;20.50;74.40
1956;DHT22;978;48.314;11.562;2023-04-24T05:32:42;20.50;74.50
1956;DHT22;978;48.314;11.562;2023-04-24T05:35:11;20.50;74.50
1956;DHT22;978;48.314;11.562;2023-04-24T05:37:37;20.50;74.40
1956;DHT22;978;48.314;11.562;2023-04-24T05:40:05;20.50;74.40
1956;DHT22;978;48.314;11.562;2023-04-24T05:42:33;20.50;74.40
1956;DHT22;978;48.314;11.562;2023-04-24T05:45:01;20.50;74.40
1956;DHT22;978;48.314;11.562;2023-04-24T05:47:28;20.50;74.40
1956;DHT22;978;48.314;11.562;2023-04-24T05:49:56;20.50;74.30
1956;DHT22;978;48.314;11.562;2023-04-24T05:52:23;20.50;74.30
1956;DHT22;978;48.314;11.562;2023-04-24T05:54:50;20.50;74.30
1956;DHT22;978;48.314;11.562;2023-04-24T05:57:17;20.50;74.30
1956;DHT22;978;48.314;11.562;2023-04-24T05:59:45;20.50;74.30
1956;DHT22;978;48.314;11.562;2023-04-24T06:02:13;20.50;74.30
1956;DHT22;978;48.314;11.562;2023-04-24T06:04:40;20.50;74.30
1956;DHT22;978;48.314;11.562;2023-04-24T06:07:07;20.50;74.30
1956;DHT22;978;48.314;11.562;2023-04-24T06:09:33;20.50;74.30
1956;DHT22;978;48.314;11.562;2023-04-24T06:12:02;20.50;74.20
1956;DHT22;978;48.314;11.562;2023-04-24T06:14:29;20.50;74.20
1956;DHT22;978;48.314;11.562;2023-04-24T06:16:57;20.50;74.20
1956;DHT22;978;48.314;11.562;2023-04-24T06:19:24;20.50;74.20
1956;DHT22;978;48.314;11.562;2023-04-24T06:21:51;20.50;74.20
1956;DHT22;978;48.314;11.562;2023-04-24T06:24:18;20.50;74.20
1956;DHT22;978;48.314;11.562;2023-04-24T06:26:45;20.50;74.20
1956;DHT22;978;48.314;11.562;2023-04-24T06:29:12;20.50;74.20
1956;DHT22;978;48.314;11.562;2023-04-24T06:31:39;20.50;74.10
1956;DHT22;978;48.314;11.562;2023-04-24T06:34:09;20.50;74.10
1956;DHT22;978;48.314;11.562;2023-04-24T06:36:36;20.50;74.10
1956;DHT22;978;48.314;11.562;2023-04-24T06:39:03;20.50;74.10
1956;DHT22;978;48.314;11.562;2023-04-24T06:41:30;20.50;74.10
1956;DHT22;978;48.314;11.562;2023-04-24T06:43:59;20.50;74.10
1956;DHT22;978;48.314;11.562;2023-04-24T06:46:27;20.50;74.10
1956;DHT22;978;48.314;11.562;2023-04-24T06:48:53;20.50;74.00
1956;DHT22;978;48.314;11.562;2023-04-24T06:51:22;20.50;74.00
1956;DHT22;978;48.314;11.562;2023-04-24T06:53:49;20.50;74.00
1956;DHT22;978;48.314;11.562;2023-04-24T06:56:16;20.50;74.00
1956;DHT22;978;48.314;11.562;2023-04-24T06:58:43;20.50;74.00
1956;DHT22;978;48.314;11.562;2023-04-24T07:01:11;20.50;74.00
1956;DHT22;978;48.314;11.562;2023-04-24T07:03:38;20.50;74.00
1956;DHT22;978;48.314;11.562;2023-04-24T07:06:05;20.50;74.00
1956;DHT22;978;48.314;11.562;2023-04-24T07:08:33;20.50;74.00
1956;DHT22;978;48.314;11.562;2023-04-24T07:11:01;20.50;74.00
1956;DHT22;978;48.314;11.562;2023-04-24T07:13:30;20.50;73.90
1956;DHT22;978;48.314;11.562;2023-04-24T07:15:58;20.50;74.00
1956;DHT22;978;48.314;11.562;2023-04-24T07:18:25;20.50;73.90
1956;DHT22;978;48.314;11.562;2023-04-24T07:20:52;20.50;74.00
1956;DHT22;978;48.314;11.562;2023-04-24T07:23:19;20.50;73.90
1956;DHT22;978;48.314;11.562;2023-04-24T07:25:54;20.50;74.00
1956;DHT22;978;48.314;11.562;2023-04-24T07:28:21;20.50;73.90
1956;DHT22;978;48.314;11.562;2023-04-24T07:30:48;20.50;73.80
1956;DHT22;978;48.314;11.562;2023-04-24T07:33:16;20.50;73.80
1956;DHT22;978;48.314;11.562;2023-04-24T07:35:42;20.50;73.90
1956;DHT22;978;48.314;11.562;2023-04-24T07:38:09;20.50;73.80
1956;DHT22;978;48.314;11.562;2023-04-24T07:40:36;20.50;73.80
1956;DHT22;978;48.314;11.562;2023-04-24T07:43:04;20.50;73.80
1956;DHT22;978;48.314;11.562;2023-04-24T07:45:32;20.50;73.80
1956;DHT22;978;48.314;11.562;2023-04-24T07:48:02;20.50;73.80
1956;DHT22;978;48.314;11.562;2023-04-24T07:50:29;20.50;73.80
1956;DHT22;978;48.314;11.562;2023-04-24T07:52:57;20.50;73.70
1956;DHT22;978;48.314;11.562;2023-04-24T07:55:24;20.50;73.70
1956;DHT22;978;48.314;11.562;2023-04-24T07:57:52;20.50;73.70
1956;DHT22;978;48.314;11.562;2023-04-24T08:00:33;20.50;73.70
1956;DHT22;978;48.314;11.562;2023-04-24T08:03:01;20.50;73.70
1956;DHT22;978;48.314;11.562;2023-04-24T08:05:28;20.50;73.70
1956;DHT22;978;48.314;11.562;2023-04-24T08:07:55;20.50;73.70
1956;DHT22;978;48.314;11.562;2023-04-24T08:10:22;20.50;73.70
1956;DHT22;978;48.314;11.562;2023-04-24T08:12:49;20.50;73.70
1956;DHT22;978;48.314;11.562;2023-04-24T08:15:16;20.50;73.60
1956;DHT22;978;48.314;11.562;2023-04-24T08:17:44;20.50;73.70
1956;DHT22;978;48.314;11.562;2023-04-24T08:20:11;20.50;73.60
1956;DHT22;978;48.314;11.562;2023-04-24T08:22:41;20.50;73.60
1956;DHT22;978;48.314;11.562;2023-04-24T08:25:09;20.50;73.60
1956;DHT22;978;48.314;11.562;2023-04-24T08:27:36;20.50;73.50
1956;DHT22;978;48.314;11.562;2023-04-24T08:30:06;20.50;73.50
1956;DHT22;978;48.314;11.562;2023-04-24T08:32:33;20.50;73.50
1956;DHT22;978;48.314;11.562;2023-04-24T08:35:01;20.50;73.50
1956;DHT22;978;48.314;11.562;2023-04-24T08:37:29;20.50;73.40
1956;DHT22;978;48.314;11.562;2023-04-24T08:39:57;20.50;73.50
1956;DHT22;978;48.314;11.562;2023-04-24T08:42:26;20.50;73.40
1956;DHT22;978;48.314;11.562;2023-04-24T08:44:56;20.50;73.40
1956;DHT22;978;48.314;11.562;2023-04-24T08:47:23;20.50;73.40
1956;DHT22;978;48.314;11.562;2023-04-24T08:49:54;20.50;73.40
1956;DHT22;978;48.314;11.562;2023-04-24T08:52:28;20.50;73.40
1956;DHT22;978;48.314;11.562;2023-04-24T08:54:55;20.50;73.40
1956;DHT22;978;48.314;11.562;2023-04-24T08:57:23;20.50;73.40
1956;DHT22;978;48.314;11.562;2023-04-24T08:59:52;20.50;73.40
1956;DHT22;978;48.314;11.562;2023-04-24T09:02:19;20.50;73.40
1956;DHT22;978;48.314;11.562;2023-04-24T09:04:46;20.50;73.40
1956;DHT22;978;48.314;11.562;2023-04-24T09:07:14;20.50;73.40
1956;DHT22;978;48.314;11.562;2023-04-24T09:09:44;20.50;73.30
1956;DHT22;978;48.314;11.562;2023-04-24T09:12:11;20.50;73.30
1956;DHT22;978;48.314;11.562;2023-04-24T09:14:39;20.50;73.30
1956;DHT22;978;48.314;11.562;2023-04-24T09:17:10;20.50;73.30
1956;DHT22;978;48.314;11.562;2023-04-24T09:19:37;20.50;73.30
1956;DHT22;978;48.314;11.562;2023-04-24T09:22:04;20.50;73.30
1956;DHT22;978;48.314;11.562;2023-04-24T09:24:34;20.50;73.20
1956;DHT22;978;48.314;11.562;2023-04-24T09:27:02;20.50;73.20
1956;DHT22;978;48.314;11.562;2023-04-24T09:29:30;20.50;73.20
1956;DHT22;978;48.314;11.562;2023-04-24T09:31:58;20.50;73.20
1956;DHT22;978;48.314;11.562;2023-04-24T09:34:27;20.50;73.10
1956;DHT22;978;48.314;11.562;2023-04-24T09:36:54;20.50;73.10
1956;DHT22;978;48.314;11.562;2023-04-24T09:39:22;20.50;73.10
1956;DHT22;978;48.314;11.562;2023-04-24T09:41:50;20.50;73.10
1956;DHT22;978;48.314;11.562;2023-04-24T09:44:19;20.50;73.00
1956;DHT22;978;48.314;11.562;2023-04-24T09:46:50;20.50;73.00
1956;DHT22;978;48.314;11.562;2023-04-24T09:49:22;20.50;72.90
1956;DHT22;978;48.314;11.562;2023-04-24T09:51:49;20.50;72.90
1956;DHT22;978;48.314;11.562;2023-04-24T09:54:17;20.50;72.90
1956;DHT22;978;48.314;11.562;2023-04-24T09:56:47;20.40;72.80
1956;DHT22;978;48.314;11.562;2023-04-24T09:59:15;20.50;72.80
1956;DHT22;978;48.314;11.562;2023-04-24T10:01:43;20.50;72.80
1956;DHT22;978;48.314;11.562;2023-04-24T10:04:18;20.50;72.80
1956;DHT22;978;48.314;11.562;2023-04-24T10:06:46;20.50;72.80
1956;DHT22;978;48.314;11.562;2023-04-24T10:09:14;20.50;73.40
1956;DHT22;978;48.314;11.562;2023-04-24T10:11:45;20.50;72.80
1956;DHT22;978;48.314;11.562;2023-04-24T10:14:13;20.50;72.70
1956;DHT22;978;48.314;11.562;2023-04-24T10:16:55;20.50;72.80
1956;DHT22;978;48.314;11.562;2023-04-24T10:20:05;20.50;72.80
1956;DHT22;978;48.314;11.562;2023-04-24T10:22:46;20.50;72.90
1956;DHT22;978;48.314;11.562;2023-04-24T10:25:16;20.50;72.90
1956;DHT22;978;48.314;11.562;2023-04-24T10:27:43;20.50;72.90
1956;DHT22;978;48.314;11.562;2023-04-24T10:30:13;20.50;73.00
1956;DHT22;978;48.314;11.562;2023-04-24T10:32:42;20.50;73.00
1956;DHT22;978;48.314;11.562;2023-04-24T10:35:09;20.50;73.00
1956;DHT22;978;48.314;11.562;2023-04-24T10:37:41;20.50;73.10
1956;DHT22;978;48.314;11.562;2023-04-24T10:40:10;20.60;73.10
1956;DHT22;978;48.314;11.562;2023-04-24T10:42:40;20.50;73.10
1956;DHT22;978;48.314;11.562;2023-04-24T10:45:16;20.50;73.20
1956;DHT22;978;48.314;11.562;2023-04-24T10:47:52;20.50;73.20
1956;DHT22;978;48.314;11.562;2023-04-24T10:50:19;20.50;73.20
1956;DHT22;978;48.314;11.562;2023-04-24T10:52:47;20.50;73.20
1956;DHT22;978;48.314;11.562;2023-04-24T10:55:14;20.50;73.30
1956;DHT22;978;48.314;11.562;2023-04-24T10:58:01;20.50;73.40
1956;DHT22;978;48.314;11.562;2023-04-24T11:00:28;20.50;73.40
1956;DHT22;978;48.314;11.562;2023-04-24T11:02:57;20.50;73.30
1956;DHT22;978;48.314;11.562;2023-04-24T11:05:50;20.50;73.40
1956;DHT22;978;48.314;11.562;2023-04-24T11:08:23;20.50;73.40
1956;DHT22;978;48.314;11.562;2023-04-24T11:10:56;20.50;73.50
1956;DHT22;978;48.314;11.562;2023-04-24T11:13:26;20.50;73.50
1956;DHT22;978;48.314;11.562;2023-04-24T11:16:28;20.40;73.40
1956;DHT22;978;48.314;11.562;2023-04-24T11:19:03;20.50;73.50
1956;DHT22;978;48.314;11.562;2023-04-24T11:21:39;20.50;73.50
1956;DHT22;978;48.314;11.562;2023-04-24T11:24:25;20.50;73.50
1956;DHT22;978;48.314;11.562;2023-04-24T11:26:56;20.50;73.50
1956;DHT22;978;48.314;11.562;2023-04-24T11:29:45;20.50;73.60
1956;DHT22;978;48.314;11.562;2023-04-24T11:32:24;20.50;73.60
1956;DHT22;978;48.314;11.562;2023-04-24T11:34:55;20.50;73.70
1956;DHT22;978;48.314;11.562;2023-04-24T11:37:22;20.50;73.70
1956;DHT22;978;48.314;11.562;2023-04-24T11:39:53;20.50;73.60
1956;DHT22;978;48.314;11.562;2023-04-24T11:42:21;20.50;73.60
1956;DHT22;978;48.314;11.562;2023-04-24T11:44:51;20.50;73.60
1956;DHT22;978;48.314;11.562;2023-04-24T11:47:18;20.50;73.70
1956;DHT22;978;48.314;11.562;2023-04-24T11:49:45;20.50;73.70
1956;DHT22;978;48.314;11.562;2023-04-24T11:52:15;20.50;73.70
1956;DHT22;978;48.314;11.562;2023-04-24T11:54:48;20.50;73.70
1956;DHT22;978;48.314;11.562;2023-04-24T11:57:19;20.50;73.70
1956;DHT22;978;48.314;11.562;2023-04-24T11:59:48;20.50;73.70
1956;DHT22;978;48.314;11.562;2023-04-24T12:02:22;20.50;73.70
1956;DHT22;978;48.314;11.562;2023-04-24T12:04:51;20.50;73.80
1956;DHT22;978;48.314;11.562;2023-04-24T12:07:20;20.50;73.80
1956;DHT22;978;48.314;11.562;2023-04-24T12:09:55;20.50;73.90
1956;DHT22;978;48.314;11.562;2023-04-24T12:12:25;20.50;73.80
1956;DHT22;978;48.314;11.562;2023-04-24T12:14:54;20.50;73.80
1956;DHT22;978;48.314;11.562;2023-04-24T12:17:26;20.50;73.80
1956;DHT22;978;48.314;11.562;2023-04-24T12:19:57;20.50;73.90
1956;DHT22;978;48.314;11.562;2023-04-24T12:22:26;20.50;73.90
1956;DHT22;978;48.314;11.562;2023-04-24T12:25:02;20.50;73.90
1956;DHT22;978;48.314;11.562;2023-04-24T12:27:31;20.50;73.90
1956;DHT22;978;48.314;11.562;2023-04-24T12:30:00;20.50;73.80
1956;DHT22;978;48.314;11.562;2023-04-24T12:32:27;20.50;73.90
1956;DHT22;978;48.314;11.562;2023-04-24T12:34:55;20.50;73.90
1956;DHT22;978;48.314;11.562;2023-04-24T12:37:24;20.50;73.90
1956;DHT22;978;48.314;11.562;2023-04-24T12:40:03;20.50;73.80
1956;DHT22;978;48.314;11.562;2023-04-24T12:42:33;20.50;73.80
1956;DHT22;978;48.314;11.562;2023-04-24T12:45:01;20.50;73.70
1956;DHT22;978;48.314;11.562;2023-04-24T12:47:29;20.50;73.70
1956;DHT22;978;48.314;11.562;2023-04-24T12:49:58;20.50;73.70
1956;DHT22;978;48.314;11.562;2023-04-24T12:52:26;20.50;73.70
1956;DHT22;978;48.314;11.562;2023-04-24T12:54:54;20.50;73.70
1956;DHT22;978;48.314;11.562;2023-04-24T12:57:22;20.50;73.70
1956;DHT22;978;48.314;11.562;2023-04-24T12:59:49;20.50;73.70
1956;DHT22;978;48.314;11.562;2023-04-24T13:02:16;20.50;73.70
1956;DHT22;978;48.314;11.562;2023-04-24T13:04:44;20.50;73.70
1956;DHT22;978;48.314;11.562;2023-04-24T13:07:12;20.50;73.70
1956;DHT22;978;48.314;11.562;2023-04-24T13:09:39;20.50;73.70
1956;DHT22;978;48.314;11.562;2023-04-24T13:12:06;20.50;73.60
1956;DHT22;978;48.314;11.562;2023-04-24T13:14:34;20.50;73.60
1956;DHT22;978;48.314;11.562;2023-04-24T13:17:01;20.50;73.60
1956;DHT22;978;48.314;11.562;2023-04-24T13:19:28;20.50;73.70
1956;DHT22;978;48.314;11.562;2023-04-24T13:21:56;20.50;73.70
1956;DHT22;978;48.314;11.562;2023-04-24T13:24:24;20.50;73.70
1956;DHT22;978;48.314;11.562;2023-04-24T13:26:51;20.50;73.70
1956;DHT22;978;48.314;11.562;2023-04-24T13:29:18;20.50;73.60
1956;DHT22;978;48.314;11.562;2023-04-24T13:31:49;20.50;73.70
1956;DHT22;978;48.314;11.562;2023-04-24T13:34:17;20.50;73.60
1956;DHT22;978;48.314;11.562;2023-04-24T13:36:43;20.50;73.70
1956;DHT22;978;48.314;11.562;2023-04-24T13:39:10;20.50;73.60
1956;DHT22;978;48.314;11.562;2023-04-24T13:41:37;20.50;73.60
1956;DHT22;978;48.314;11.562;2023-04-24T13:44:04;20.50;73.60
1956;DHT22;978;48.314;11.562;2023-04-24T13:46:31;20.50;73.60
1956;DHT22;978;48.314;11.562;2023-04-24T13:48:59;20.50;73.60
1956;DHT22;978;48.314;11.562;2023-04-24T13:51:26;20.50;73.60
1956;DHT22;978;48.314;11.562;2023-04-24T13:53:53;20.50;73.50
1956;DHT22;978;48.314;11.562;2023-04-24T13:56:21;20.50;73.60
1956;DHT22;978;48.314;11.562;2023-04-24T13:58:48;20.50;73.50
1956;DHT22;978;48.314;11.562;2023-04-24T14:01:16;20.50;73.50
1956;DHT22;978;48.314;11.562;2023-04-24T14:03:45;20.50;73.50
1956;DHT22;978;48.314;11.562;2023-04-24T14:06:15;20.50;73.40
1956;DHT22;978;48.314;11.562;2023-04-24T14:08:41;20.50;73.40
1956;DHT22;978;48.314;11.562;2023-04-24T14:11:08;20.50;73.40
1956;DHT22;978;48.314;11.562;2023-04-24T14:13:36;20.50;73.40
1956;DHT22;978;48.314;11.562;2023-04-24T14:16:03;20.50;73.40
1956;DHT22;978;48.314;11.562;2023-04-24T14:18:30;20.50;73.40
1956;DHT22;978;48.314;11.562;2023-04-24T14:20:57;20.50;73.40
1956;DHT22;978;48.314;11.562;2023-04-24T14:23:25;20.50;73.40
1956;DHT22;978;48.314;11.562;2023-04-24T14:25:52;20.50;73.40
1956;DHT22;978;48.314;11.562;2023-04-24T14:28:20;20.50;73.30
1956;DHT22;978;48.314;11.562;2023-04-24T14:30:47;20.50;73.20
1956;DHT22;978;48.314;11.562;2023-04-24T14:33:18;20.50;73.20
1956;DHT22;978;48.314;11.562;2023-04-24T14:35:47;20.50;73.30
1956;DHT22;978;48.314;11.562;2023-04-24T14:38:16;20.50;73.20
1956;DHT22;978;48.314;11.562;2023-04-24T14:40:44;20.50;73.20
1956;DHT22;978;48.314;11.562;2023-04-24T14:43:11;20.50;73.10
1956;DHT22;978;48.314;11.562;2023-04-24T14:45:38;20.50;73.10
1956;DHT22;978;48.314;11.562;2023-04-24T14:48:06;20.50;73.10
1956;DHT22;978;48.314;11.562;2023-04-24T14:50:33;20.50;73.10
1956;DHT22;978;48.314;11.562;2023-04-24T14:53:00;20.50;73.00
1956;DHT22;978;48.314;11.562;2023-04-24T14:55:28;20.50;73.10
1956;DHT22;978;48.314;11.562;2023-04-24T14:57:59;20.50;73.10
1956;DHT22;978;48.314;11.562;2023-04-24T15:00:27;20.50;73.10
1956;DHT22;978;48.314;11.562;2023-04-24T15:02:53;20.50;73.00
1956;DHT22;978;48.314;11.562;2023-04-24T15:05:21;20.50;73.00
1956;DHT22;978;48.314;11.562;2023-04-24T15:07:48;20.50;73.00
1956;DHT22;978;48.314;11.562;2023-04-24T15:10:15;20.50;73.00
1956;DHT22;978;48.314;11.562;2023-04-24T15:12:44;20.50;73.00
1956;DHT22;978;48.314;11.562;2023-04-24T15:15:14;20.50;72.90
1956;DHT22;978;48.314;11.562;2023-04-24T15:17:42;20.50;72.90
1956;DHT22;978;48.314;11.562;2023-04-24T15:20:10;20.50;72.90
1956;DHT22;978;48.314;11.562;2023-04-24T15:22:38;20.50;73.00
1956;DHT22;978;48.314;11.562;2023-04-24T15:25:07;20.50;73.00
1956;DHT22;978;48.314;11.562;2023-04-24T15:27:40;20.50;72.90
1956;DHT22;978;48.314;11.562;2023-04-24T15:30:09;20.50;72.90
1956;DHT22;978;48.314;11.562;2023-04-24T15:32:40;20.50;72.80
1956;DHT22;978;48.314;11.562;2023-04-24T15:35:08;20.50;72.90
1956;DHT22;978;48.314;11.562;2023-04-24T15:37:36;20.50;72.90
1956;DHT22;978;48.314;11.562;2023-04-24T15:40:04;20.50;72.80
1956;DHT22;978;48.314;11.562;2023-04-24T15:42:32;20.50;72.90
1956;DHT22;978;48.314;11.562;2023-04-24T15:44:59;20.50;72.80
1956;DHT22;978;48.314;11.562;2023-04-24T15:47:26;20.50;72.80
1956;DHT22;978;48.314;11.562;2023-04-24T15:49:54;20.50;72.70
1956;DHT22;978;48.314;11.562;2023-04-24T15:52:21;20.50;72.70
1956;DHT22;978;48.314;11.562;2023-04-24T15:54:48;20.50;72.70
1956;DHT22;978;48.314;11.562;2023-04-24T15:57:15;20.50;72.70
1956;DHT22;978;48.314;11.562;2023-04-24T15:59:44;20.50;72.70
1956;DHT22;978;48.314;11.562;2023-04-24T16:02:13;20.50;72.60
1956;DHT22;978;48.314;11.562;2023-04-24T16:04:44;20.50;72.60
1956;DHT22;978;48.314;11.562;2023-04-24T16:07:14;20.50;72.60
1956;DHT22;978;48.314;11.562;2023-04-24T16:09:45;20.50;72.60
1956;DHT22;978;48.314;11.562;2023-04-24T16:12:14;20.50;72.60